createdAt,value
2023-04-17T00:00:14.520Z,19.60
2023-04-17T00:02:41.297Z,19.50
2023-04-17T00:05:08.947Z,18.13
2023-04-17T00:07:38.746Z,18.70
2023-04-17T00:10:09.620Z,18.77
2023-04-17T00:12:36.383Z,18.20
2023-04-17T00:15:03.407Z,18.20
2023-04-17T00:17:29.966Z,18.10
2023-04-17T00:19:56.481Z,18.10
2023-04-17T00:22:23.000Z,18.20
2023-04-17T00:24:49.497Z,18.80
2023-04-17T00:27:16.038Z,17.90
2023-04-17T00:29:42.565Z,18.83
2023-04-17T00:32:09.175Z,18.53
2023-04-17T00:34:35.777Z,17.80
2023-04-17T00:37:02.268Z,17.03
2023-04-17T00:39:28.781Z,18.37
2023-04-17T00:41:56.479Z,18.30
2023-04-17T00:44:23.046Z,17.60
2023-04-17T00:46:49.613Z,18.30
2023-04-17T00:49:16.205Z,18.77
2023-04-17T00:51:42.751Z,17.90
2023-04-17T00:54:10.167Z,18.03
2023-04-17T00:56:36.722Z,17.40
2023-04-17T00:59:04.127Z,17.87
2023-04-17T01:01:30.728Z,17.77
2023-04-17T01:03:59.872Z,18.23
2023-04-17T01:06:27.048Z,17.77
2023-04-17T01:08:53.977Z,17.90
2023-04-17T01:11:20.577Z,18.37
2023-04-17T01:13:50.675Z,17.27
2023-04-17T01:16:17.939Z,17.97
2023-04-17T01:18:44.462Z,17.77
2023-04-17T01:21:11.168Z,17.33
2023-04-17T01:23:45.173Z,18.27
2023-04-17T01:26:16.917Z,17.80
2023-04-17T01:28:43.884Z,18.03
2023-04-17T01:31:15.163Z,17.67
2023-04-17T01:33:41.977Z,18.23
2023-04-17T01:36:08.782Z,18.40
2023-04-17T01:38:35.312Z,18.63
2023-04-17T01:41:09.515Z,17.27
2023-04-17T01:43:47.173Z,18.20
2023-04-17T01:46:13.748Z,19.83
2023-04-17T01:48:40.877Z,18.40
2023-04-17T01:51:07.442Z,19.30
2023-04-17T01:53:34.431Z,18.10
2023-04-17T01:56:01.822Z,18.37
2023-04-17T01:58:28.485Z,18.67
2023-04-17T02:00:55.160Z,17.27
2023-04-17T02:03:22.887Z,18.70
2023-04-17T02:05:50.098Z,17.10
2023-04-17T02:08:16.665Z,17.20
2023-04-17T02:10:43.211Z,18.57
2023-04-17T02:13:10.090Z,17.93
2023-04-17T02:15:37.641Z,18.30
2023-04-17T02:18:06.259Z,17.10
2023-04-17T02:20:36.451Z,17.37
2023-04-17T02:23:04.728Z,17.20
2023-04-17T02:25:31.532Z,16.83
2023-04-17T02:27:58.137Z,17.20
2023-04-17T02:30:26.225Z,16.47
2023-04-17T02:32:53.813Z,16.43
2023-04-17T02:35:21.453Z,15.60
2023-04-17T02:37:48.053Z,16.17
2023-04-17T02:40:15.412Z,15.87
2023-04-17T02:42:42.207Z,15.93
2023-04-17T02:45:09.439Z,15.50
2023-04-17T02:47:36.448Z,15.03
2023-04-17T02:50:03.242Z,15.47
2023-04-17T02:52:31.030Z,15.37
2023-04-17T02:54:57.872Z,15.17
2023-04-17T02:57:25.221Z,15.37
2023-04-17T02:59:52.051Z,15.07
2023-04-17T03:02:21.967Z,15.20
2023-04-17T03:04:50.414Z,16.40
2023-04-17T03:07:18.661Z,15.40
2023-04-17T03:09:48.637Z,16.27
2023-04-17T03:12:15.839Z,15.70
2023-04-17T03:14:42.694Z,15.57
2023-04-17T03:17:10.270Z,16.33
2023-04-17T03:19:36.770Z,15.90
2023-04-17T03:22:03.604Z,17.30
2023-04-17T03:24:31.229Z,16.97
2023-04-17T03:26:58.665Z,17.07
2023-04-17T03:29:25.379Z,19.40
2023-04-17T03:31:52.048Z,16.70
2023-04-17T03:34:21.608Z,16.67
2023-04-17T03:36:48.437Z,16.27
2023-04-17T03:39:15.069Z,17.10
2023-04-17T03:41:41.504Z,17.57
2023-04-17T03:44:09.128Z,16.37
2023-04-17T03:46:36.077Z,18.63
2023-04-17T03:49:02.647Z,16.50
2023-04-17T03:51:29.138Z,16.10
2023-04-17T03:53:55.655Z,15.30
2023-04-17T03:56:22.196Z,16.17
2023-04-17T03:58:48.747Z,14.77
2023-04-17T04:01:15.722Z,15.30
2023-04-17T04:03:42.538Z,14.67
2023-04-17T04:06:09.550Z,15.30
2023-04-17T04:08:35.993Z,15.20
2023-04-17T04:11:03.218Z,15.60
2023-04-17T04:13:29.711Z,16.13
2023-04-17T04:15:56.193Z,14.30
2023-04-17T04:18:22.751Z,14.37
2023-04-17T04:20:49.185Z,15.13
2023-04-17T04:23:16.802Z,15.23
2023-04-17T04:25:43.567Z,14.13
2023-04-17T04:28:10.584Z,15.20
2023-04-17T04:30:38.655Z,13.90
2023-04-17T04:33:05.885Z,14.13
2023-04-17T04:35:32.698Z,15.17
2023-04-17T04:38:02.820Z,14.10
2023-04-17T04:40:30.784Z,14.60
2023-04-17T04:42:58.507Z,14.60
2023-04-17T04:45:25.012Z,13.17
2023-04-17T04:47:52.502Z,14.37
2023-04-17T04:50:19.879Z,14.67
2023-04-17T04:52:46.389Z,13.63
2023-04-17T04:55:14.629Z,14.33
2023-04-17T04:57:41.620Z,15.03
2023-04-17T05:00:09.516Z,15.47
2023-04-17T05:02:37.048Z,13.87
2023-04-17T05:05:04.534Z,14.50
2023-04-17T05:07:31.314Z,14.30
2023-04-17T05:09:57.759Z,13.63
2023-04-17T05:12:24.236Z,14.70
2023-04-17T05:14:50.822Z,14.77
2023-04-17T05:17:17.337Z,14.13
2023-04-17T05:19:43.814Z,14.67
2023-04-17T05:22:10.314Z,14.30
2023-04-17T05:24:36.881Z,14.70
2023-04-17T05:27:04.033Z,14.03
2023-04-17T05:29:30.549Z,13.60
2023-04-17T05:31:57.076Z,13.90
2023-04-17T05:34:23.578Z,14.73
2023-04-17T05:36:50.049Z,14.77
2023-04-17T05:39:16.686Z,13.80
2023-04-17T05:41:43.218Z,15.30
2023-04-17T05:44:09.801Z,14.10
2023-04-17T05:46:36.311Z,14.67
2023-04-17T05:49:02.901Z,14.50
2023-04-17T05:51:29.634Z,13.87
2023-04-17T05:53:56.282Z,14.87
2023-04-17T05:56:23.355Z,14.20
2023-04-17T05:58:49.827Z,14.83
2023-04-17T06:01:18.166Z,14.90
2023-04-17T06:03:44.813Z,14.43
2023-04-17T06:06:11.423Z,16.50
2023-04-17T06:08:37.972Z,15.27
2023-04-17T06:11:04.618Z,15.80
2023-04-17T06:13:31.200Z,14.50
2023-04-17T06:15:58.647Z,15.47
2023-04-17T06:18:25.524Z,15.30
2023-04-17T06:20:52.003Z,15.67
2023-04-17T06:23:18.444Z,14.90
2023-04-17T06:25:44.961Z,16.77
2023-04-17T06:28:11.384Z,15.70
2023-04-17T06:30:37.952Z,15.50
2023-04-17T06:33:04.487Z,15.07
2023-04-17T06:35:31.137Z,17.47
2023-04-17T06:37:57.517Z,16.70
2023-04-17T06:40:23.963Z,17.23
2023-04-17T06:42:50.445Z,18.30
2023-04-17T06:44:15.828Z,27.00
2023-04-17T06:45:16.898Z,18.47
2023-04-17T06:47:46.397Z,18.20
2023-04-17T06:50:12.956Z,18.40
2023-04-17T06:50:17.792Z,25.97
2023-04-17T06:52:39.499Z,19.43
2023-04-17T06:53:03.936Z,25.40
2023-04-17T06:55:06.320Z,17.40
2023-04-17T06:55:45.937Z,25.77
2023-04-17T06:57:33.973Z,19.37
2023-04-17T06:58:20.465Z,27.20
2023-04-17T07:00:00.648Z,18.93
2023-04-17T07:01:05.244Z,25.70
2023-04-17T07:02:27.391Z,20.20
2023-04-17T07:03:40.457Z,25.83
2023-04-17T07:04:55.050Z,20.83
2023-04-17T07:06:11.858Z,25.87
2023-04-17T07:07:21.722Z,21.50
2023-04-17T07:08:43.442Z,25.40
2023-04-17T07:09:48.310Z,20.17
2023-04-17T07:11:14.353Z,25.47
2023-04-17T07:12:15.392Z,21.90
2023-04-17T07:14:42.242Z,21.57
2023-04-17T07:15:35.104Z,25.83
2023-04-17T07:17:08.665Z,20.33
2023-04-17T07:17:29.059Z,25.93
2023-04-17T07:19:35.213Z,21.57
2023-04-17T07:20:05.652Z,26.13
2023-04-17T07:22:01.660Z,21.50
2023-04-17T07:22:43.297Z,25.60
2023-04-17T07:24:28.197Z,20.90
2023-04-17T07:25:33.669Z,23.80
2023-04-17T07:26:54.666Z,21.47
2023-04-17T07:29:21.093Z,20.30
2023-04-17T07:31:47.655Z,22.07
2023-04-17T07:34:14.132Z,20.60
2023-04-17T07:36:40.582Z,19.40
2023-04-17T07:39:07.984Z,20.23
2023-04-17T07:41:34.483Z,20.87
2023-04-17T07:44:03.249Z,21.27
2023-04-17T07:46:29.783Z,19.23
2023-04-17T07:48:56.248Z,20.73
2023-04-17T07:50:30.333Z,24.03
2023-04-17T07:51:22.744Z,19.17
2023-04-17T07:53:49.326Z,19.07
2023-04-17T07:56:16.413Z,20.33
2023-04-17T07:58:44.888Z,19.40
2023-04-17T08:01:11.496Z,19.60
2023-04-17T08:03:41.371Z,19.17
2023-04-17T08:06:08.360Z,19.37
2023-04-17T08:06:43.665Z,25.80
2023-04-17T08:08:34.802Z,20.13
2023-04-17T08:09:16.492Z,14.40
2023-04-17T08:11:01.309Z,20.03
2023-04-17T08:11:56.335Z,11.20
2023-04-17T08:13:30.967Z,20.07
2023-04-17T08:14:26.980Z,11.57
2023-04-17T08:15:57.522Z,18.87
2023-04-17T08:16:58.951Z,11.93
2023-04-17T08:18:23.940Z,18.17
2023-04-17T08:19:30.816Z,10.53
2023-04-17T08:20:50.573Z,18.90
2023-04-17T08:22:07.867Z,12.20
2023-04-17T08:23:17.091Z,19.20
2023-04-17T08:24:37.564Z,11.33
2023-04-17T08:25:44.637Z,19.40
2023-04-17T08:27:07.929Z,11.53
2023-04-17T08:28:11.187Z,18.67
2023-04-17T08:29:40.213Z,11.90
2023-04-17T08:30:37.819Z,19.37
2023-04-17T08:32:14.620Z,11.40
2023-04-17T08:33:04.491Z,19.90
2023-04-17T08:34:47.500Z,11.67
2023-04-17T08:35:31.200Z,19.23
2023-04-17T08:37:18.707Z,12.40
2023-04-17T08:37:59.906Z,18.80
2023-04-17T08:39:52.731Z,10.80
2023-04-17T08:40:26.984Z,19.20
2023-04-17T08:42:21.520Z,11.30
2023-04-17T08:42:54.435Z,18.50
2023-04-17T08:44:50.554Z,11.73
2023-04-17T08:45:21.447Z,18.73
2023-04-17T08:47:20.357Z,10.93
2023-04-17T08:47:48.024Z,18.43
2023-04-17T08:50:02.364Z,11.17
2023-04-17T08:50:16.983Z,19.40
2023-04-17T08:52:33.124Z,11.17
2023-04-17T08:52:45.538Z,18.30
2023-04-17T08:55:03.571Z,11.00
2023-04-17T08:55:14.246Z,18.27
2023-04-17T08:57:32.232Z,10.73
2023-04-17T08:58:04.820Z,16.90
2023-04-17T09:00:07.161Z,11.70
2023-04-17T09:00:33.605Z,17.80
2023-04-17T09:02:55.461Z,11.67
2023-04-17T09:03:01.943Z,17.97
2023-04-17T09:05:27.276Z,11.10
2023-04-17T09:05:30.424Z,16.57
2023-04-17T09:08:11.638Z,17.73
2023-04-17T09:08:21.085Z,10.83
2023-04-17T09:10:49.560Z,17.20
2023-04-17T09:10:52.761Z,12.63
2023-04-17T09:13:18.000Z,16.20
2023-04-17T09:13:25.860Z,12.50
2023-04-17T09:15:46.187Z,16.50
2023-04-17T09:16:08.472Z,11.87
2023-04-17T09:18:26.656Z,17.33
2023-04-17T09:18:39.631Z,12.47
2023-04-17T09:20:53.988Z,17.03
2023-04-17T09:21:09.407Z,11.73
2023-04-17T09:23:20.831Z,17.27
2023-04-17T09:23:53.430Z,11.27
2023-04-17T09:26:05.562Z,17.00
2023-04-17T09:26:25.191Z,11.53
2023-04-17T09:28:35.480Z,15.63
2023-04-17T09:29:08.767Z,11.23
2023-04-17T09:31:26.468Z,15.00
2023-04-17T09:31:39.933Z,11.30
2023-04-17T09:34:00.286Z,14.17
2023-04-17T09:34:12.159Z,10.57
2023-04-17T09:36:30.469Z,15.23
2023-04-17T09:36:43.334Z,10.57
2023-04-17T09:38:59.898Z,15.17
2023-04-17T09:39:24.244Z,10.40
2023-04-17T09:41:28.927Z,14.50
2023-04-17T09:42:07.571Z,10.47
2023-04-17T09:43:57.206Z,14.60
2023-04-17T09:44:38.090Z,10.23
2023-04-17T09:46:42.723Z,13.07
2023-04-17T09:47:09.753Z,10.50
2023-04-17T09:49:33.943Z,13.23
2023-04-17T09:49:42.701Z,12.17
2023-04-17T09:52:00.578Z,13.87
2023-04-17T09:52:12.499Z,11.60
2023-04-17T09:54:31.278Z,14.00
2023-04-17T09:54:43.464Z,11.30
2023-04-17T09:56:58.746Z,12.70
2023-04-17T09:57:13.699Z,11.60
2023-04-17T09:59:25.928Z,13.37
2023-04-17T09:59:45.399Z,11.80
2023-04-17T10:01:54.333Z,13.20
2023-04-17T10:02:17.988Z,10.60
2023-04-17T10:04:21.784Z,13.10
2023-04-17T10:04:48.813Z,10.60
2023-04-17T10:06:49.404Z,11.63
2023-04-17T10:07:18.950Z,12.30
2023-04-17T10:09:16.025Z,12.13
2023-04-17T10:09:49.133Z,11.90
2023-04-17T10:11:45.020Z,11.87
2023-04-17T10:12:22.819Z,11.10
2023-04-17T10:14:30.472Z,12.00
2023-04-17T10:14:54.243Z,11.70
2023-04-17T10:16:57.141Z,12.00
2023-04-17T10:17:32.087Z,11.17
2023-04-17T10:19:27.716Z,13.50
2023-04-17T10:20:39.246Z,11.43
2023-04-17T10:22:16.255Z,12.20
2023-04-17T10:23:30.273Z,11.50
2023-04-17T10:24:43.189Z,12.23
2023-04-17T10:26:40.045Z,11.37
2023-04-17T10:27:25.580Z,12.70
2023-04-17T10:29:08.631Z,10.07
2023-04-17T10:29:56.694Z,11.53
2023-04-17T10:32:28.628Z,11.47
2023-04-17T10:32:29.100Z,11.60
2023-04-17T10:34:59.380Z,12.83
2023-04-17T10:34:59.528Z,10.10
2023-04-17T10:37:47.244Z,12.53
2023-04-17T10:38:09.505Z,9.97
2023-04-17T10:40:24.485Z,11.77
2023-04-17T10:40:41.246Z,10.60
2023-04-17T10:43:18.812Z,9.53
2023-04-17T10:43:22.987Z,11.53
2023-04-17T10:45:58.034Z,11.87
2023-04-17T10:46:04.523Z,10.03
2023-04-17T10:48:35.703Z,11.20
2023-04-17T10:48:36.902Z,10.40
2023-04-17T10:51:26.835Z,11.13
2023-04-17T10:51:43.170Z,9.50
2023-04-17T10:53:59.937Z,10.63
2023-04-17T10:54:15.947Z,9.70
2023-04-17T10:56:29.076Z,11.47
2023-04-17T10:56:48.863Z,10.17
2023-04-17T10:59:03.579Z,11.03
2023-04-17T10:59:21.539Z,9.60
2023-04-17T11:01:37.386Z,10.73
2023-04-17T11:02:05.089Z,10.00
2023-04-17T11:04:04.495Z,11.00
2023-04-17T11:04:35.056Z,11.90
2023-04-17T11:06:32.413Z,11.63
2023-04-17T11:09:00.400Z,11.10
2023-04-17T11:10:19.631Z,12.43
2023-04-17T11:11:40.465Z,11.10
2023-04-17T11:12:49.775Z,9.27
2023-04-17T11:14:18.618Z,11.70
2023-04-17T11:15:43.409Z,14.37
2023-04-17T11:16:47.036Z,10.60
2023-04-17T11:18:12.490Z,9.63
2023-04-17T11:19:23.471Z,9.83
2023-04-17T11:20:43.738Z,14.60
2023-04-17T11:21:55.226Z,10.63
2023-04-17T11:23:13.292Z,10.90
2023-04-17T11:24:29.780Z,10.97
2023-04-17T11:25:43.019Z,11.20
2023-04-17T11:26:59.629Z,10.50
2023-04-17T11:28:14.411Z,11.40
2023-04-17T11:29:27.135Z,11.53
2023-04-17T11:30:45.884Z,12.00
2023-04-17T11:31:55.597Z,11.17
2023-04-17T11:33:14.583Z,11.07
2023-04-17T11:34:22.707Z,11.43
2023-04-17T11:35:43.981Z,11.40
2023-04-17T11:36:56.883Z,11.70
2023-04-17T11:38:17.914Z,10.83
2023-04-17T11:39:25.569Z,11.63
2023-04-17T11:40:50.010Z,11.57
2023-04-17T11:41:52.720Z,11.70
2023-04-17T11:43:19.839Z,10.93
2023-04-17T11:44:20.559Z,11.63
2023-04-17T11:45:52.909Z,10.37
2023-04-17T11:46:54.762Z,11.53
2023-04-17T11:48:25.553Z,13.30
2023-04-17T11:49:28.704Z,12.30
2023-04-17T11:51:01.376Z,12.50
2023-04-17T11:51:58.076Z,13.80
2023-04-17T11:53:32.718Z,12.00
2023-04-17T11:54:27.667Z,12.70
2023-04-17T11:56:18.107Z,10.60
2023-04-17T11:57:06.287Z,12.43
2023-04-17T11:58:52.325Z,10.23
2023-04-17T11:59:38.113Z,12.00
2023-04-17T12:01:25.796Z,10.37
2023-04-17T12:02:07.188Z,13.47
2023-04-17T12:03:55.484Z,9.47
2023-04-17T12:04:35.065Z,12.37
2023-04-17T12:06:25.150Z,9.20
2023-04-17T12:07:05.986Z,12.83
2023-04-17T12:08:56.671Z,8.37
2023-04-17T12:09:33.821Z,12.50
2023-04-17T12:11:31.025Z,8.10
2023-04-17T12:12:07.907Z,13.10
2023-04-17T12:14:02.260Z,8.03
2023-04-17T12:14:34.772Z,12.37
2023-04-17T12:16:34.584Z,8.50
2023-04-17T12:17:01.410Z,13.10
2023-04-17T12:19:03.962Z,8.33
2023-04-17T12:19:29.454Z,13.20
2023-04-17T12:21:32.820Z,8.60
2023-04-17T12:21:56.630Z,11.77
2023-04-17T12:24:01.496Z,8.30
2023-04-17T12:24:24.788Z,12.43
2023-04-17T12:26:30.222Z,7.90
2023-04-17T12:26:51.734Z,13.10
2023-04-17T12:28:59.120Z,8.67
2023-04-17T12:29:22.019Z,13.60
2023-04-17T12:31:27.991Z,9.37
2023-04-17T12:31:56.424Z,13.57
2023-04-17T12:33:58.305Z,9.27
2023-04-17T12:34:23.070Z,13.30
2023-04-17T12:36:27.711Z,8.57
2023-04-17T12:36:50.953Z,12.40
2023-04-17T12:38:56.605Z,9.70
2023-04-17T12:39:17.365Z,13.57
2023-04-17T12:41:26.930Z,9.30
2023-04-17T12:41:43.950Z,11.70
2023-04-17T12:43:55.599Z,9.87
2023-04-17T12:44:10.992Z,13.40
2023-04-17T12:46:24.729Z,9.40
2023-04-17T12:46:37.775Z,13.00
2023-04-17T12:48:58.662Z,9.20
2023-04-17T12:49:04.242Z,12.60
2023-04-17T12:51:29.322Z,8.57
2023-04-17T12:51:32.332Z,12.13
2023-04-17T12:53:58.489Z,8.60
2023-04-17T12:53:58.822Z,13.10
2023-04-17T12:56:25.345Z,13.07
2023-04-17T12:56:27.572Z,8.30
2023-04-17T12:58:51.807Z,12.50
2023-04-17T12:58:56.363Z,7.53
2023-04-17T13:01:18.336Z,13.80
2023-04-17T13:01:25.591Z,7.60
2023-04-17T13:03:45.012Z,12.50
2023-04-17T13:03:54.560Z,7.97
2023-04-17T13:06:12.308Z,13.10
2023-04-17T13:06:23.374Z,7.30
2023-04-17T13:08:39.055Z,12.03
2023-04-17T13:08:53.670Z,6.97
2023-04-17T13:11:05.678Z,11.77
2023-04-17T13:11:22.199Z,7.30
2023-04-17T13:13:32.222Z,10.93
2023-04-17T13:14:14.496Z,7.70
2023-04-17T13:15:58.820Z,13.00
2023-04-17T13:16:43.280Z,7.97
2023-04-17T13:18:26.342Z,11.90
2023-04-17T13:19:12.293Z,7.90
2023-04-17T13:20:52.821Z,11.10
2023-04-17T13:21:41.208Z,8.50
2023-04-17T13:23:19.309Z,11.30
2023-04-17T13:24:14.713Z,6.97
2023-04-17T13:25:45.960Z,10.73
2023-04-17T13:26:43.801Z,7.80
2023-04-17T13:28:12.607Z,10.43
2023-04-17T13:29:12.912Z,7.53
2023-04-17T13:30:39.782Z,11.13
2023-04-17T13:31:43.093Z,7.33
2023-04-17T13:33:06.471Z,13.20
2023-04-17T13:34:13.342Z,6.10
2023-04-17T13:35:33.051Z,11.50
2023-04-17T13:36:42.573Z,6.47
2023-04-17T13:38:02.486Z,11.90
2023-04-17T13:39:13.420Z,6.87
2023-04-17T13:40:30.068Z,10.20
2023-04-17T13:41:42.762Z,6.60
2023-04-17T13:42:56.637Z,10.20
2023-04-17T13:44:11.962Z,7.93
2023-04-17T13:45:23.172Z,10.40
2023-04-17T13:46:41.526Z,8.03
2023-04-17T13:47:49.687Z,10.57
2023-04-17T13:49:11.976Z,7.60
2023-04-17T13:50:16.368Z,11.20
2023-04-17T13:51:40.974Z,7.47
2023-04-17T13:52:42.921Z,10.07
2023-04-17T13:54:14.554Z,7.17
2023-04-17T13:55:11.930Z,10.63
2023-04-17T13:56:47.275Z,7.20
2023-04-17T13:57:38.564Z,10.10
2023-04-17T13:59:16.066Z,6.33
2023-04-17T14:00:06.329Z,9.90
2023-04-17T14:01:44.728Z,8.80
2023-04-17T14:02:33.131Z,11.60
2023-04-17T14:04:13.785Z,6.50
2023-04-17T14:05:00.161Z,9.57
2023-04-17T14:06:44.272Z,6.77
2023-04-17T14:07:27.513Z,10.30
2023-04-17T14:09:14.607Z,6.90
2023-04-17T14:09:53.998Z,9.90
2023-04-17T14:11:43.362Z,6.60
2023-04-17T14:12:21.646Z,9.50
2023-04-17T14:14:12.951Z,6.47
2023-04-17T14:14:48.167Z,12.20
2023-04-17T14:16:42.167Z,7.07
2023-04-17T14:17:14.914Z,9.70
2023-04-17T14:19:13.965Z,6.80
2023-04-17T14:19:41.503Z,9.43
2023-04-17T14:21:44.072Z,4.60
2023-04-17T14:22:08.052Z,9.10
2023-04-17T14:24:14.250Z,5.00
2023-04-17T14:24:34.566Z,10.40
2023-04-17T14:26:43.425Z,4.30
2023-04-17T14:27:01.729Z,10.67
2023-04-17T14:29:14.475Z,4.40
2023-04-17T14:29:28.454Z,10.70
2023-04-17T14:31:43.768Z,5.87
2023-04-17T14:31:55.141Z,10.40
2023-04-17T14:34:18.963Z,5.90
2023-04-17T14:34:21.846Z,10.00
2023-04-17T14:36:48.745Z,10.67
2023-04-17T14:39:15.540Z,10.60
2023-04-17T14:41:42.288Z,9.87
2023-04-17T14:44:08.917Z,9.97
2023-04-17T14:46:35.761Z,10.37
2023-04-17T14:49:02.619Z,9.90
2023-04-17T14:51:30.736Z,9.43
2023-04-17T14:53:57.558Z,9.33
2023-04-17T14:56:24.142Z,10.00
2023-04-17T14:58:50.725Z,9.90
2023-04-17T15:01:17.250Z,10.03
2023-04-17T15:03:46.773Z,9.23
2023-04-17T15:06:15.220Z,10.83
2023-04-17T15:06:24.298Z,4.00
2023-04-17T15:08:41.828Z,10.10
2023-04-17T15:09:16.541Z,5.80
2023-04-17T15:11:08.726Z,10.57
2023-04-17T15:11:54.870Z,8.20
2023-04-17T15:13:35.959Z,9.80
2023-04-17T15:14:32.246Z,14.80
2023-04-17T15:16:02.786Z,10.23
2023-04-17T15:17:07.757Z,7.73
2023-04-17T15:18:29.447Z,9.90
2023-04-17T15:19:49.222Z,9.07
2023-04-17T15:20:56.116Z,9.90
2023-04-17T15:22:23.695Z,9.03
2023-04-17T15:23:22.917Z,10.67
2023-04-17T15:24:56.664Z,10.03
2023-04-17T15:25:49.474Z,10.63
2023-04-17T15:27:33.694Z,7.90
2023-04-17T15:28:16.082Z,10.30
2023-04-17T15:30:14.702Z,7.17
2023-04-17T15:30:42.700Z,9.80
2023-04-17T15:32:52.492Z,7.70
2023-04-17T15:33:10.404Z,10.53
2023-04-17T15:35:24.660Z,8.50
2023-04-17T15:35:37.636Z,9.40
2023-04-17T15:38:02.657Z,10.17
2023-04-17T15:38:05.740Z,10.60
2023-04-17T15:40:32.257Z,10.53
2023-04-17T15:40:36.975Z,9.30
2023-04-17T15:42:58.750Z,10.30
2023-04-17T15:43:12.624Z,7.50
2023-04-17T15:45:26.228Z,11.23
2023-04-17T15:45:55.791Z,7.90
2023-04-17T15:47:53.594Z,9.73
2023-04-17T15:49:37.764Z,7.33
2023-04-17T15:50:21.139Z,9.37
2023-04-17T15:52:48.019Z,9.70
2023-04-17T15:55:15.303Z,9.90
2023-04-17T15:57:43.139Z,9.13
2023-04-17T16:00:10.706Z,8.97
2023-04-17T16:01:42.566Z,7.83
2023-04-17T16:02:37.484Z,9.83
2023-04-17T16:05:04.552Z,9.70
2023-04-17T16:07:31.702Z,10.97
2023-04-17T16:09:58.521Z,10.53
2023-04-17T16:12:25.079Z,9.47
2023-04-17T16:13:11.736Z,8.37
2023-04-17T16:14:51.566Z,10.00
2023-04-17T16:16:09.952Z,7.40
2023-04-17T16:17:18.157Z,9.67
2023-04-17T16:19:44.642Z,9.97
2023-04-17T16:19:50.732Z,10.47
2023-04-17T16:22:11.132Z,10.17
2023-04-17T16:24:37.641Z,10.33
2023-04-17T16:27:06.228Z,9.90
2023-04-17T16:29:32.608Z,9.10
2023-04-17T16:30:27.978Z,8.97
2023-04-17T16:31:59.134Z,8.97
2023-04-17T16:33:13.539Z,11.87
2023-04-17T16:34:25.757Z,10.33
2023-04-17T16:36:52.426Z,9.10
2023-04-17T16:39:18.967Z,10.17
2023-04-17T16:41:45.552Z,9.53
2023-04-17T16:41:59.794Z,9.83
2023-04-17T16:44:12.181Z,9.00
2023-04-17T16:49:10.071Z,10.50
2023-04-17T16:51:38.290Z,9.33
2023-04-17T16:54:05.137Z,10.13
2023-04-17T16:56:31.679Z,9.60
2023-04-17T16:58:58.099Z,9.73
2023-04-17T17:01:24.632Z,9.93
2023-04-17T17:03:51.450Z,10.50
2023-04-17T17:06:17.985Z,9.73
2023-04-17T17:08:46.702Z,10.00
2023-04-17T17:11:16.860Z,10.97
2023-04-17T17:11:54.352Z,10.73
2023-04-17T17:13:49.192Z,11.73
2023-04-17T17:16:16.895Z,10.40
2023-04-17T17:18:43.751Z,10.33
2023-04-17T17:21:10.493Z,11.20
2023-04-17T17:23:38.099Z,10.33
2023-04-17T17:26:05.260Z,10.73
2023-04-17T17:28:32.150Z,10.37
2023-04-17T17:31:03.038Z,10.73
2023-04-17T17:33:29.734Z,11.80
2023-04-17T17:35:57.050Z,11.17
2023-04-17T17:38:23.926Z,11.53
2023-04-17T17:40:53.512Z,11.50
2023-04-17T17:43:20.138Z,11.50
2023-04-17T17:45:46.733Z,11.70
2023-04-17T17:48:15.394Z,10.47
2023-04-17T17:50:44.994Z,11.30
2023-04-17T17:50:56.738Z,11.70
2023-04-17T17:53:11.762Z,10.77
2023-04-17T17:55:38.474Z,11.57
2023-04-17T17:58:06.321Z,11.17
2023-04-17T18:00:33.554Z,11.60
2023-04-17T18:03:00.200Z,11.20
2023-04-17T18:05:27.599Z,12.23
2023-04-17T18:07:54.100Z,10.53
2023-04-17T18:10:20.737Z,11.30
2023-04-17T18:12:47.215Z,12.80
2023-04-17T18:15:13.772Z,11.30
2023-04-17T18:16:33.081Z,14.20
2023-04-17T18:17:40.397Z,11.10
2023-04-17T18:19:32.012Z,16.83
2023-04-17T18:20:08.123Z,11.67
2023-04-17T18:22:00.989Z,15.37
2023-04-17T18:22:35.228Z,11.40
2023-04-17T18:24:29.529Z,14.47
2023-04-17T18:25:01.893Z,12.00
2023-04-17T18:26:58.528Z,14.97
2023-04-17T18:27:28.365Z,12.60
2023-04-17T18:29:27.236Z,15.50
2023-04-17T18:29:54.825Z,12.20
2023-04-17T18:31:57.364Z,14.93
2023-04-17T18:32:21.394Z,12.73
2023-04-17T18:34:26.363Z,15.83
2023-04-17T18:34:49.807Z,12.33
2023-04-17T18:36:54.994Z,15.20
2023-04-17T18:37:18.135Z,12.63
2023-04-17T18:39:23.735Z,15.60
2023-04-17T18:39:44.900Z,13.13
2023-04-17T18:41:52.383Z,16.30
2023-04-17T18:42:11.447Z,12.43
2023-04-17T18:44:22.565Z,16.07
2023-04-17T18:44:39.797Z,12.57
2023-04-17T18:46:51.350Z,16.70
2023-04-17T18:47:06.640Z,12.60
2023-04-17T18:49:21.587Z,15.23
2023-04-17T18:49:33.459Z,12.17
2023-04-17T18:51:50.503Z,16.70
2023-04-17T18:52:00.164Z,12.27
2023-04-17T18:54:19.639Z,15.40
2023-04-17T18:54:26.699Z,11.80
2023-04-17T18:56:48.626Z,19.60
2023-04-17T18:56:53.484Z,12.57
2023-04-17T18:59:17.258Z,17.10
2023-04-17T18:59:21.484Z,12.50
2023-04-17T19:01:45.858Z,17.37
2023-04-17T19:01:48.208Z,12.70
2023-04-17T19:04:14.479Z,16.10
2023-04-17T19:04:14.745Z,12.67
2023-04-17T19:06:41.527Z,13.20
2023-04-17T19:06:44.863Z,15.77
2023-04-17T19:09:08.356Z,12.33
2023-04-17T19:09:13.936Z,17.50
2023-04-17T19:11:34.947Z,13.37
2023-04-17T19:11:42.546Z,18.07
2023-04-17T19:14:01.477Z,12.83
2023-04-17T19:14:11.377Z,16.10
2023-04-17T19:16:28.100Z,12.80
2023-04-17T19:16:40.064Z,15.10
2023-04-17T19:18:56.620Z,13.10
2023-04-17T19:19:11.307Z,14.90
2023-04-17T19:21:23.146Z,13.67
2023-04-17T19:21:40.830Z,14.80
2023-04-17T19:23:49.757Z,13.53
2023-04-17T19:24:12.034Z,14.83
2023-04-17T19:26:17.331Z,12.80
2023-04-17T19:26:41.451Z,15.40
2023-04-17T19:28:43.892Z,13.00
2023-04-17T19:29:10.156Z,15.73
2023-04-17T19:31:10.919Z,13.10
2023-04-17T19:31:40.625Z,16.80
2023-04-17T19:33:37.394Z,13.30
2023-04-17T19:34:10.689Z,16.50
2023-04-17T19:36:03.959Z,14.40
2023-04-17T19:36:39.583Z,19.10
2023-04-17T19:38:31.314Z,14.43
2023-04-17T19:39:08.482Z,18.77
2023-04-17T19:41:17.215Z,15.33
2023-04-17T19:41:42.620Z,21.80
2023-04-17T19:43:44.613Z,13.07
2023-04-17T19:44:12.103Z,19.57
2023-04-17T19:46:13.314Z,14.03
2023-04-17T19:46:41.734Z,11.00
2023-04-17T19:48:41.485Z,13.77
2023-04-17T19:49:12.115Z,11.53
2023-04-17T19:51:08.075Z,13.73
2023-04-17T19:51:41.190Z,11.23
2023-04-17T19:53:35.920Z,14.60
2023-04-17T19:54:12.930Z,11.60
2023-04-17T19:56:03.425Z,14.97
2023-04-17T19:56:44.266Z,11.50
2023-04-17T19:58:30.390Z,14.50
2023-04-17T19:59:13.930Z,12.40
2023-04-17T20:00:58.624Z,14.60
2023-04-17T20:01:44.654Z,12.40
2023-04-17T20:03:26.219Z,15.37
2023-04-17T20:04:13.720Z,11.80
2023-04-17T20:05:53.568Z,14.90
2023-04-17T20:06:42.590Z,12.50
2023-04-17T20:08:20.641Z,15.03
2023-04-17T20:09:14.576Z,12.47
2023-04-17T20:10:47.159Z,14.80
2023-04-17T20:11:45.451Z,13.40
2023-04-17T20:13:13.765Z,14.30
2023-04-17T20:14:20.011Z,13.67
2023-04-17T20:15:40.605Z,16.63
2023-04-17T20:16:50.283Z,12.57
2023-04-17T20:18:09.153Z,15.10
2023-04-17T20:19:23.483Z,14.37
2023-04-17T20:20:36.823Z,14.30
2023-04-17T20:21:59.737Z,15.20
2023-04-17T20:23:03.595Z,14.83
2023-04-17T20:24:32.917Z,16.03
2023-04-17T20:25:30.335Z,15.83
2023-04-17T20:27:06.254Z,16.00
2023-04-17T20:27:57.272Z,15.37
2023-04-17T20:29:35.233Z,15.40
2023-04-17T20:30:24.323Z,15.03
2023-04-17T20:32:04.479Z,16.83
2023-04-17T20:32:51.237Z,16.30
2023-04-17T20:34:35.914Z,15.60
2023-04-17T20:35:20.700Z,16.10
2023-04-17T20:37:09.779Z,15.50
2023-04-17T20:37:47.314Z,15.57
2023-04-17T20:39:42.032Z,15.23
2023-04-17T20:40:14.265Z,16.13
2023-04-17T20:42:15.200Z,15.80
2023-04-17T20:42:44.324Z,16.40
2023-04-17T20:44:45.891Z,15.30
2023-04-17T20:45:11.175Z,17.20
2023-04-17T20:47:16.370Z,15.80
2023-04-17T20:47:52.873Z,16.17
2023-04-17T20:49:48.256Z,15.33
2023-04-17T20:50:23.259Z,15.00
2023-04-17T20:52:23.315Z,15.40
2023-04-17T20:52:49.913Z,15.20
2023-04-17T20:54:52.170Z,16.33
2023-04-17T20:55:18.779Z,15.47
2023-04-17T20:57:23.588Z,14.53
2023-04-17T20:57:45.657Z,14.30
2023-04-17T20:59:52.982Z,16.20
2023-04-17T21:00:12.700Z,15.40
2023-04-17T21:02:22.030Z,15.40
2023-04-17T21:02:39.391Z,15.43
2023-04-17T21:04:52.650Z,15.53
2023-04-17T21:05:07.249Z,15.87
2023-04-17T21:07:24.768Z,17.00
2023-04-17T21:07:33.909Z,14.70
2023-04-17T21:09:53.682Z,16.53
2023-04-17T21:10:00.426Z,14.97